Time;durP1;ratioP1;P1;durP2;ratioP2;P2;SDS_P1;SDS_P2;PMS_P1;PMS_P2;Temp;Humidity;BMP_temperature;BMP_pressure;BME280_temperature;BME280_humidity;BME280_pressure;Samples;Min_cycle;Max_cycle;Signal;HPM_P1;HPM_P2
2021/03/22 00:01:21;;;;;;;2.78;1.27;;;;;;;2.10;52.10;100594.75;5105770;28;20514;-67
2021/03/22 00:03:46;;;;;;;6.82;1.60;;;;;;;2.10;52.05;100597.31;5105902;28;20016;-67
2021/03/22 00:06:11;;;;;;;4.40;1.55;;;;;;;2.11;52.10;100599.03;5106146;28;20058;-67
2021/03/22 00:08:37;;;;;;;3.03;1.20;;;;;;;2.15;51.91;100595.75;5105836;28;20016;-67
2021/03/22 00:11:02;;;;;;;2.28;1.10;;;;;;;2.17;51.80;100595.81;5105848;28;20031;-67
2021/03/22 00:13:29;;;;;;;5.32;1.50;;;;;;;2.21;51.80;100592.50;5105796;28;20020;-66
2021/03/22 00:15:59;;;;;;;6.18;2.42;;;;;;;2.25;51.83;100603.72;5105476;28;20462;-66
2021/03/22 00:18:29;;;;;;;5.82;1.40;;;;;;;2.28;52.23;100603.81;5105737;28;20016;-66
2021/03/22 00:20:55;;;;;;;7.13;1.55;;;;;;;2.27;51.76;100591.81;5105600;28;20024;-66
2021/03/22 00:23:21;;;;;;;8.82;1.35;;;;;;;2.33;51.67;100592.00;5105567;28;20413;-68
2021/03/22 00:25:46;;;;;;;7.13;1.63;;;;;;;2.29;51.68;100587.59;5105610;28;20031;-66
2021/03/22 00:28:14;;;;;;;8.18;1.55;;;;;;;2.33;51.57;100592.84;5105312;28;20024;-66
2021/03/22 00:30:41;;;;;;;3.80;1.60;;;;;;;2.34;51.79;100596.28;5105142;28;20087;-66
2021/03/22 00:33:10;;;;;;;3.97;1.55;;;;;;;2.33;51.72;100599.69;5105465;28;20016;-67
2021/03/22 00:35:36;;;;;;;3.40;1.30;;;;;;;2.31;51.65;100597.06;5105355;28;20031;-65
2021/03/22 00:38:02;;;;;;;9.10;1.60;;;;;;;2.34;51.79;100601.41;5105408;28;20016;-67
2021/03/22 00:40:30;;;;;;;3.92;1.10;;;;;;;2.37;51.68;100601.50;5105184;28;20023;-70
2021/03/22 00:42:56;;;;;;;3.33;1.63;;;;;;;2.35;51.67;100596.31;5105016;28;20032;-67
2021/03/22 00:45:23;;;;;;;5.13;1.35;;;;;;;2.47;51.67;100607.75;5104770;28;20439;-65
2021/03/22 00:47:50;;;;;;;4.78;1.50;;;;;;;2.51;51.57;100616.41;5104392;28;20104;-66
2021/03/22 00:50:37;;;;;;;4.68;1.27;;;;;;;2.52;51.52;100611.31;5104842;28;20024;-67
2021/03/22 00:53:04;;;;;;;4.28;1.30;;;;;;;2.53;51.46;100605.38;5104953;28;20020;-67
2021/03/22 00:55:29;;;;;;;2.75;1.33;;;;;;;2.55;51.34;100608.84;5103762;28;20044;-66
2021/03/22 00:57:55;;;;;;;2.63;1.23;;;;;;;2.57;51.43;100617.44;5104869;28;20088;-65
2021/03/22 01:00:30;;;;;;;2.67;1.38;;;;;;;2.56;51.32;100614.81;5104603;28;20028;-65
2021/03/22 01:02:56;;;;;;;6.22;1.30;;;;;;;2.54;51.41;100624.19;5104681;28;20030;-66
2021/03/22 01:05:22;;;;;;;5.53;1.55;;;;;;;2.47;51.56;100618.88;5104624;28;20023;-66
2021/03/22 01:07:48;;;;;;;4.72;1.17;;;;;;;2.43;51.62;100608.50;5104696;28;20024;-66
2021/03/22 01:10:37;;;;;;;7.82;1.58;;;;;;;2.35;51.59;100606.56;5104465;28;20028;-66
2021/03/22 01:13:04;;;;;;;4.45;1.20;;;;;;;2.31;51.72;100598.75;5104421;28;20030;-65
2021/03/22 01:15:30;;;;;;;5.55;1.23;;;;;;;2.29;51.84;100602.97;5104243;28;20020;-65
2021/03/22 01:17:56;;;;;;;2.17;1.05;;;;;;;2.32;51.84;100610.75;5104231;28;20127;-66
2021/03/22 01:20:32;;;;;;;4.45;1.67;;;;;;;2.28;52.14;100601.22;5104246;28;20069;-65
2021/03/22 01:22:58;;;;;;;5.43;1.38;;;;;;;2.33;51.68;100592.84;5104329;28;20020;-65
2021/03/22 01:25:23;;;;;;;4.60;1.10;;;;;;;2.36;51.90;100592.09;5104427;28;20102;-66
2021/03/22 01:27:49;;;;;;;2.10;1.50;;;;;;;2.42;51.90;100592.25;5104014;28;20041;-65
2021/03/22 01:30:19;;;;;;;3.38;1.20;;;;;;;2.46;52.13;100585.53;5103988;28;20361;-65
2021/03/22 01:32:45;;;;;;;3.25;1.45;;;;;;;2.53;51.86;100581.41;5104379;28;20048;-66
2021/03/22 01:35:11;;;;;;;5.30;1.50;;;;;;;2.54;52.10;100580.59;5104305;28;20332;-67
2021/03/22 01:37:36;;;;;;;5.50;1.58;;;;;;;2.58;51.79;100585.84;5104172;28;20027;-66
2021/03/22 01:40:09;;;;;;;3.10;1.25;;;;;;;2.61;51.97;100577.38;5103484;28;20024;-68
2021/03/22 01:43:02;;;;;;;5.53;1.38;;;;;;;2.62;52.07;100581.66;5102947;28;20016;-66
2021/03/22 01:45:27;;;;;;;2.70;1.20;;;;;;;2.65;52.03;100586.88;5103426;28;20051;-66
2021/03/22 01:47:52;;;;;;;7.28;1.50;;;;;;;2.65;51.84;100584.31;5103940;28;20020;-67
2021/03/22 01:50:25;;;;;;;5.22;1.50;;;;;;;2.72;51.77;100590.47;5103764;28;20047;-66
2021/03/22 01:52:52;;;;;;;4.20;1.25;;;;;;;2.70;52.04;100582.75;5103914;28;20039;-65
2021/03/22 01:55:19;;;;;;;2.38;1.60;;;;;;;2.69;51.90;100580.13;5103778;28;20047;-66
2021/03/22 01:57:46;;;;;;;3.05;1.17;;;;;;;2.57;52.78;100583.25;5103642;28;20024;-66
2021/03/22 02:00:29;;;;;;;5.13;1.10;;;;;;;2.58;53.03;100584.97;5103656;28;20088;-66
2021/03/22 02:03:04;;;;;;;3.28;1.25;;;;;;;2.56;52.98;100577.25;5103859;28;20020;-66
2021/03/22 02:05:30;;;;;;;7.10;1.67;;;;;;;2.59;53.04;100581.59;5102580;28;20431;-67
2021/03/22 02:08:14;;;;;;;5.18;1.08;;;;;;;2.60;53.19;100586.75;5103602;28;20020;-67
2021/03/22 02:10:42;;;;;;;6.25;1.27;;;;;;;2.60;53.40;100588.47;5103777;28;20047;-68
2021/03/22 02:13:09;;;;;;;2.92;1.20;;;;;;;2.60;53.45;100585.91;5103589;28;20360;-68
2021/03/22 02:15:37;;;;;;;5.38;2.03;;;;;;;2.62;53.41;100589.34;5103449;28;20028;-66
2021/03/22 02:18:18;;;;;;;6.50;1.95;;;;;;;2.61;53.61;100590.19;5103513;28;20083;-67
2021/03/22 02:21:18;;;;;;;3.10;1.30;;;;;;;2.57;53.81;100581.53;5103457;28;20056;-66
2021/03/22 02:24:01;;;;;;;6.95;1.60;;;;;;;2.55;53.59;100582.34;5103680;28;20040;-67
2021/03/22 02:26:45;;;;;;;3.85;1.33;;;;;;;2.51;53.82;100593.34;5103398;28;20080;-66
2021/03/22 02:29:31;;;;;;;3.67;1.40;;;;;;;2.44;54.06;100598.31;5103529;28;20106;-66
2021/03/22 02:32:08;;;;;;;6.80;1.58;;;;;;;2.39;54.40;100609.22;5103787;28;20031;-66
2021/03/22 02:34:46;;;;;;;3.45;1.17;;;;;;;2.41;54.06;100589.66;5103520;28;20024;-67
2021/03/22 02:37:33;;;;;;;3.45;1.08;;;;;;;2.42;54.29;100588.81;5103703;28;20023;-66
2021/03/22 02:40:29;;;;;;;6.55;2.08;;;;;;;2.39;54.61;100581.91;5103453;28;20278;-67
2021/03/22 02:42:56;;;;;;;5.50;1.48;;;;;;;2.34;54.82;100570.66;5103434;28;20024;-67
2021/03/22 02:45:25;;;;;;;6.68;1.20;;;;;;;2.31;55.09;100585.94;5103213;28;20090;-66
2021/03/22 02:47:51;;;;;;;4.30;1.20;;;;;;;2.32;55.51;100593.69;5103483;28;20031;-66
2021/03/22 02:50:21;;;;;;;4.78;1.15;;;;;;;2.31;56.26;100602.19;5103201;28;20024;-67
2021/03/22 02:53:08;;;;;;;3.03;1.13;;;;;;;2.29;56.82;100592.72;5103152;28;20052;-66
2021/03/22 02:56:02;;;;;;;4.38;1.30;;;;;;;2.25;56.99;100584.09;5103294;28;20024;-66
2021/03/22 02:58:34;;;;;;;2.75;1.15;;;;;;;2.20;57.71;100583.97;5103193;28;20069;-67
2021/03/22 03:01:07;;;;;;;3.28;1.45;;;;;;;2.28;57.77;100585.88;5102915;28;20073;-66
2021/03/22 03:03:34;;;;;;;11.35;1.23;;;;;;;2.19;59.04;100584.78;5103232;28;20036;-67
2021/03/22 03:06:00;;;;;;;9.52;2.13;;;;;;;2.27;60.11;100592.66;5103325;28;20046;-65
2021/03/22 03:08:31;;;;;;;5.18;1.50;;;;;;;2.28;61.04;100596.13;5102997;28;20079;-66
2021/03/22 03:10:57;;;;;;;6.72;1.38;;;;;;;2.31;61.49;100598.75;5106080;28;20035;-64
2021/03/22 03:13:23;;;;;;;2.65;1.27;;;;;;;2.38;61.71;100595.53;5106885;28;20103;-66
2021/03/22 03:15:48;;;;;;;5.55;1.55;;;;;;;2.45;61.36;100583.78;5106726;28;20048;-65
2021/03/22 03:18:14;;;;;;;4.05;1.50;;;;;;;2.58;62.59;100590.09;5107254;28;20229;-65
2021/03/22 03:20:39;;;;;;;5.38;1.67;;;;;;;2.63;63.71;100597.91;5106846;28;20111;-65
2021/03/22 03:23:05;;;;;;;6.38;2.20;;;;;;;2.66;65.31;100601.44;5106879;28;20024;-66
2021/03/22 03:25:31;;;;;;;7.95;3.47;;;;;;;2.65;66.33;100597.13;5106816;28;20028;-66
2021/03/22 03:27:57;;;;;;;10.35;1.75;;;;;;;2.68;66.99;100599.81;5106686;28;20024;-66
2021/03/22 03:30:36;;;;;;;9.93;1.67;;;;;;;2.71;66.61;100599.88;5106491;28;20024;-66
2021/03/22 03:33:03;;;;;;;3.08;1.40;;;;;;;2.74;67.42;100593.97;5106899;28;20024;-66
2021/03/22 03:35:31;;;;;;;12.82;1.90;;;;;;;2.77;67.84;100603.41;5106884;28;20027;-66
2021/03/22 03:37:57;;;;;;;3.13;1.80;;;;;;;2.77;68.77;100598.28;5106562;28;20076;-66
2021/03/22 03:40:32;;;;;;;6.72;1.63;;;;;;;2.79;68.53;100610.34;5106625;28;20035;-67
2021/03/22 03:42:58;;;;;;;4.68;1.88;;;;;;;2.81;68.92;100608.66;5106429;28;20047;-66
2021/03/22 03:45:26;;;;;;;4.35;1.60;;;;;;;2.83;69.09;100603.56;5106225;28;20067;-66
2021/03/22 03:47:51;;;;;;;6.78;1.95;;;;;;;2.84;69.49;100602.78;5106557;28;20275;-67
2021/03/22 03:50:21;;;;;;;8.85;1.65;;;;;;;2.84;69.04;100598.50;5106353;28;20244;-66
2021/03/22 03:52:47;;;;;;;4.38;2.15;;;;;;;2.84;69.22;100608.75;5106570;28;20024;-65
2021/03/22 03:55:15;;;;;;;6.43;2.00;;;;;;;2.88;69.32;100607.13;5106375;28;20084;-66
2021/03/22 03:57:48;;;;;;;6.47;1.58;;;;;;;2.83;69.66;100611.28;5106085;28;20464;-65
2021/03/22 04:00:36;;;;;;;7.25;1.90;;;;;;;2.82;70.23;100613.00;5106003;28;20024;-65
2021/03/22 04:03:27;;;;;;;6.15;1.60;;;;;;;2.82;70.60;100602.72;5105602;28;20032;-64
2021/03/22 04:06:15;;;;;;;4.88;1.42;;;;;;;2.80;71.64;100608.63;5106149;28;20039;-65
2021/03/22 04:08:45;;;;;;;7.18;1.67;;;;;;;2.77;71.84;100605.97;5105852;28;20016;-65
2021/03/22 04:11:20;;;;;;;11.70;1.77;;;;;;;2.79;72.26;100604.34;5105977;28;20028;-64
2021/03/22 04:13:45;;;;;;;12.15;2.28;;;;;;;2.78;72.28;100603.47;5105924;28;20180;-65
2021/03/22 04:16:13;;;;;;;8.35;2.22;;;;;;;2.79;72.25;100610.34;5105717;28;20499;-64
2021/03/22 04:18:40;;;;;;;10.00;1.90;;;;;;;2.81;72.32;100602.69;5105776;28;20024;-66
2021/03/22 04:21:08;;;;;;;5.97;1.58;;;;;;;2.81;72.19;100597.56;5104736;28;20024;-65
2021/03/22 04:23:34;;;;;;;6.25;2.08;;;;;;;2.77;72.57;100595.72;5105647;28;20107;-65
2021/03/22 04:26:01;;;;;;;7.50;2.40;;;;;;;2.76;72.58;100592.31;5105735;28;20080;-65
2021/03/22 04:28:27;;;;;;;6.82;2.00;;;;;;;2.77;72.61;100595.72;5121478;28;20016;-65
2021/03/22 04:30:53;;;;;;;5.82;2.00;;;;;;;2.75;72.59;100594.84;5105563;28;20048;-65
2021/03/22 04:33:18;;;;;;;6.88;1.70;;;;;;;2.75;72.46;100598.25;5105572;28;20024;-65
2021/03/22 04:35:43;;;;;;;13.65;2.47;;;;;;;2.74;72.78;100604.22;5105676;28;20019;-68
2021/03/22 04:38:08;;;;;;;6.57;1.85;;;;;;;2.70;72.47;100594.72;5105696;28;20273;-66
2021/03/22 04:40:34;;;;;;;7.80;2.20;;;;;;;2.63;72.39;100588.53;5105507;28;20479;-66
2021/03/22 04:42:59;;;;;;;9.40;1.85;;;;;;;2.62;72.38;100584.22;5105242;28;20024;-65
2021/03/22 04:45:29;;;;;;;6.00;1.70;;;;;;;2.57;72.28;100585.81;5105061;28;20058;-65
2021/03/22 04:47:55;;;;;;;6.63;1.88;;;;;;;2.50;72.18;100578.78;5105531;28;20020;-66
2021/03/22 04:50:22;;;;;;;6.43;1.70;;;;;;;2.45;72.36;100579.53;5105369;28;20031;-66
2021/03/22 04:52:48;;;;;;;12.10;2.28;;;;;;;2.41;72.29;100579.41;5105236;28;20468;-65
2021/03/22 04:55:14;;;;;;;8.82;1.77;;;;;;;2.36;72.26;100586.97;5105213;28;20054;-65
2021/03/22 04:57:39;;;;;;;5.88;1.55;;;;;;;2.33;72.54;100587.72;5105198;28;20028;-65
2021/03/22 05:00:18;;;;;;;9.18;2.10;;;;;;;2.27;72.88;100590.09;5105028;28;20034;-65
2021/03/22 05:02:43;;;;;;;9.77;3.08;;;;;;;2.19;72.69;100587.34;5105101;28;20083;-65
2021/03/22 05:05:10;;;;;;;7.40;1.95;;;;;;;2.19;72.88;100584.78;5104928;28;20085;-64
2021/03/22 05:07:35;;;;;;;7.50;2.10;;;;;;;2.15;73.26;100584.63;5104799;28;20020;-66
2021/03/22 05:10:02;;;;;;;6.85;2.30;;;;;;;2.10;73.45;100584.50;5104598;28;20032;-66
2021/03/22 05:12:27;;;;;;;9.70;2.03;;;;;;;2.09;73.48;100595.59;5104550;28;20187;-66
2021/03/22 05:14:53;;;;;;;10.52;2.50;;;;;;;2.07;73.57;100595.53;5104407;28;20024;-65
2021/03/22 05:17:18;;;;;;;7.15;3.55;;;;;;;2.04;73.65;100594.56;5105029;28;20035;-66
2021/03/22 05:19:43;;;;;;;9.00;2.53;;;;;;;2.08;72.79;100597.28;5104633;28;20227;-66
2021/03/22 05:22:09;;;;;;;10.48;2.20;;;;;;;2.09;72.79;100591.31;5104382;28;20556;-65
2021/03/22 05:24:34;;;;;;;6.18;2.00;;;;;;;2.08;73.16;100589.59;5104462;28;20016;-66
2021/03/22 05:27:00;;;;;;;9.15;2.35;;;;;;;2.12;73.21;100598.22;5104584;28;20020;-66
2021/03/22 05:29:26;;;;;;;8.25;2.38;;;;;;;2.15;73.22;100598.31;5103616;28;20016;-65
2021/03/22 05:31:53;;;;;;;12.35;2.70;;;;;;;2.18;73.39;100590.72;5103367;28;20103;-65
2021/03/22 05:34:20;;;;;;;6.70;1.98;;;;;;;2.28;73.44;100580.75;5103580;28;20038;-65
2021/03/22 05:36:45;;;;;;;4.97;2.00;;;;;;;2.47;73.80;100577.88;5104016;28;20080;-67
2021/03/22 05:39:11;;;;;;;8.20;1.95;;;;;;;2.75;73.77;100584.59;5104197;28;20048;-65
2021/03/22 05:42:01;;;;;;;7.13;1.80;;;;;;;3.11;73.28;100588.91;5102444;28;20024;-66
2021/03/22 05:44:50;;;;;;;6.88;2.22;;;;;;;3.39;71.73;100586.16;5103693;28;20035;-63
2021/03/22 05:47:23;;;;;;;8.35;1.55;;;;;;;3.42;70.81;100581.97;5104362;28;20163;-65
2021/03/22 05:50:09;;;;;;;9.07;1.80;;;;;;;3.37;70.82;100590.41;5104255;28;20100;-66
2021/03/22 05:52:40;;;;;;;5.63;2.20;;;;;;;3.31;70.65;100591.09;5104217;28;20020;-66
2021/03/22 05:55:15;;;;;;;11.67;2.10;;;;;;;3.27;70.73;100595.31;5104003;28;20031;-66
2021/03/22 05:57:52;;;;;;;8.00;2.17;;;;;;;3.26;70.70;100601.25;5104281;28;20043;-66
2021/03/22 06:00:27;;;;;;;12.55;2.65;;;;;;;3.29;70.56;100592.78;5103836;28;20028;-67
2021/03/22 06:03:05;;;;;;;8.82;3.78;;;;;;;3.25;70.56;100601.22;5103962;28;20077;-66
2021/03/22 06:05:42;;;;;;;7.68;2.08;;;;;;;3.29;70.78;100600.47;5104087;28;20024;-65
2021/03/22 06:08:31;;;;;;;5.18;1.77;;;;;;;3.61;71.54;100595.22;5103923;28;20070;-66
2021/03/22 06:10:57;;;;;;;8.23;1.92;;;;;;;4.26;71.48;100590.66;5100648;28;20036;-66
2021/03/22 06:13:33;;;;;;;10.50;1.85;;;;;;;4.87;70.43;100581.53;5103755;28;20172;-66
2021/03/22 06:16:05;;;;;;;13.13;2.30;;;;;;;5.60;69.13;100604.13;5103617;28;20088;-64
2021/03/22 06:18:48;;;;;;;9.52;2.22;;;;;;;6.23;68.19;100608.50;5103937;28;20027;-64
2021/03/22 06:21:15;;;;;;;6.15;1.70;;;;;;;6.88;67.93;100601.50;5103846;28;20149;-64
2021/03/22 06:23:46;;;;;;;11.68;2.22;;;;;;;7.27;65.49;100606.13;5103663;28;20161;-64
2021/03/22 06:26:40;;;;;;;9.80;2.23;;;;;;;7.84;63.46;100597.94;5103951;28;20103;-64
2021/03/22 06:29:14;;;;;;;5.20;1.70;;;;;;;8.02;61.46;100599.75;5102332;28;20279;-64
2021/03/22 06:31:41;;;;;;;5.05;1.50;;;;;;;7.86;60.17;100593.63;5102608;28;20024;-64
2021/03/22 06:34:08;;;;;;;7.10;1.90;;;;;;;7.69;59.28;100591.81;5102497;28;20020;-64
2021/03/22 06:36:34;;;;;;;6.57;2.03;;;;;;;7.46;59.23;100603.72;5103752;28;20028;-64
2021/03/22 06:39:02;;;;;;;10.93;2.63;;;;;;;7.31;59.33;100600.16;5103918;28;20072;-64
2021/03/22 06:41:35;;;;;;;6.65;2.00;;;;;;;7.13;59.46;100606.88;5103558;28;20535;-63
2021/03/22 06:44:06;;;;;;;7.45;2.00;;;;;;;7.06;59.66;100599.94;5103519;28;20046;-64
2021/03/22 06:46:32;;;;;;;7.70;1.73;;;;;;;6.91;59.11;100601.53;5107288;28;20052;-64
2021/03/22 06:48:58;;;;;;;7.00;2.45;;;;;;;6.84;59.47;100599.72;5107570;28;20043;-63
2021/03/22 06:51:23;;;;;;;6.45;2.08;;;;;;;6.90;59.40;100599.78;5107539;28;20020;-64
2021/03/22 06:53:57;;;;;;;6.65;1.85;;;;;;;6.98;59.16;100597.25;5107242;28;20380;-64
2021/03/22 06:56:33;;;;;;;6.00;1.80;;;;;;;6.94;58.93;100586.06;5107333;28;20476;-64
2021/03/22 06:59:14;;;;;;;8.77;1.70;;;;;;;6.81;59.01;100576.44;5107216;28;20012;-63
2021/03/22 07:01:42;;;;;;;7.47;2.17;;;;;;;6.74;59.45;100572.94;5107234;28;20024;-63
2021/03/22 07:04:29;;;;;;;7.45;2.33;;;;;;;6.64;59.46;100568.56;5105858;28;20103;-64
2021/03/22 07:07:13;;;;;;;11.80;2.35;;;;;;;6.73;59.62;100591.00;5106988;28;20383;-63
2021/03/22 07:10:06;;;;;;;7.55;2.25;;;;;;;6.93;60.03;100578.31;5107033;28;20028;-63
2021/03/22 07:12:38;;;;;;;7.57;1.90;;;;;;;7.39;59.28;100588.16;5106612;28;20023;-63
2021/03/22 07:15:39;;;;;;;8.02;2.15;;;;;;;7.89;57.66;100572.13;5106922;28;20016;-63
2021/03/22 07:18:10;;;;;;;6.00;1.80;;;;;;;8.18;56.97;100574.81;5084035;28;20022;-63
2021/03/22 07:20:35;;;;;;;4.88;1.90;;;;;;;8.78;56.05;100570.72;5083803;28;20114;-64
2021/03/22 07:23:22;;;;;;;6.55;2.20;;;;;;;9.69;55.10;100564.66;5066858;28;20036;-64
2021/03/22 07:25:51;;;;;;;15.98;3.05;;;;;;;10.57;52.73;100560.00;5083829;28;20040;-64
2021/03/22 07:28:42;;;;;;;7.20;1.90;;;;;;;11.42;50.63;100561.09;5083562;28;20020;-64
2021/03/22 07:31:47;;;;;;;7.70;2.25;;;;;;;12.36;48.94;100563.53;5083550;28;20036;-64
2021/03/22 07:34:30;;;;;;;7.30;2.05;;;;;;;13.11;47.02;100570.28;5083707;28;20139;-65
2021/03/22 07:37:13;;;;;;;9.35;2.45;;;;;;;12.82;44.06;100579.41;5083288;28;20028;-64
2021/03/22 07:39:49;;;;;;;7.57;2.20;;;;;;;12.88;44.84;100579.31;5083359;28;20032;-65
2021/03/22 07:42:31;;;;;;;6.15;1.95;;;;;;;13.57;43.89;100573.00;5083584;28;20028;-65
2021/03/22 07:45:02;;;;;;;9.38;2.28;;;;;;;13.96;43.82;100566.19;5083256;28;20129;-64
2021/03/22 07:47:49;;;;;;;7.87;2.87;;;;;;;14.27;41.22;100578.59;5083654;28;20037;-65
2021/03/22 07:50:23;;;;;;;4.97;1.90;;;;;;;14.37;40.57;100574.03;5083523;28;20056;-65
2021/03/22 07:53:39;;;;;;;5.00;1.50;;;;;;;14.69;39.52;100585.53;5101865;28;20088;-65
2021/03/22 07:56:23;;;;;;;5.70;2.28;;;;;;;14.46;38.16;100584.28;5063239;28;20043;-65
2021/03/22 07:58:59;;;;;;;5.50;1.88;;;;;;;14.09;38.37;100591.13;5063172;28;20037;-64
2021/03/22 08:01:50;;;;;;;6.45;2.72;;;;;;;13.49;39.93;100595.69;5062901;28;20033;-64
2021/03/22 08:04:42;;;;;;;6.45;2.08;;;;;;;13.51;40.72;100593.97;5058378;28;20082;-64
2021/03/22 08:07:23;;;;;;;9.68;2.30;;;;;;;13.78;41.43;100594.34;5062993;28;20082;-65
2021/03/22 08:09:54;;;;;;;8.18;2.28;;;;;;;14.07;40.54;100585.09;5046079;28;20032;-65
2021/03/22 08:12:58;;;;;;;12.88;2.55;;;;;;;14.12;40.08;100595.44;5062767;28;20020;-65
2021/03/22 08:15:39;;;;;;;7.90;2.22;;;;;;;14.22;40.16;100583.91;5061727;28;20460;-65
2021/03/22 08:18:22;;;;;;;7.70;2.42;;;;;;;14.36;38.52;100586.22;5062153;28;20064;-66
2021/03/22 08:20:55;;;;;;;11.85;2.42;;;;;;;14.46;38.08;100584.28;5061480;28;20127;-66
2021/03/22 08:23:32;;;;;;;7.05;1.80;;;;;;;14.38;37.66;100575.75;5061460;28;20101;-65
2021/03/22 08:26:04;;;;;;;6.53;1.80;;;;;;;14.54;38.17;100578.00;5062453;28;20152;-66
2021/03/22 08:28:38;;;;;;;7.00;1.88;;;;;;;14.48;37.73;100581.63;5062665;28;20097;-65
2021/03/22 08:31:12;;;;;;;5.75;1.83;;;;;;;14.29;37.98;100584.66;5101081;28;20036;-65
2021/03/22 08:33:43;;;;;;;10.07;1.85;;;;;;;14.18;38.49;100576.19;5105564;28;20101;-65
2021/03/22 08:36:27;;;;;;;12.90;2.20;;;;;;;14.33;38.65;100575.84;5105850;28;20016;-65
2021/03/22 08:39:06;;;;;;;6.88;1.77;;;;;;;14.68;38.23;100573.34;5105513;28;20245;-65
2021/03/22 08:41:35;;;;;;;4.05;1.60;;;;;;;14.62;37.78;100576.09;5105432;28;20020;-65
2021/03/22 08:44:41;;;;;;;5.28;1.95;;;;;;;14.48;37.64;100576.41;5105237;28;20113;-65
2021/03/22 08:47:16;;;;;;;5.70;1.80;;;;;;;14.09;38.15;100566.78;5104317;28;20052;-64
2021/03/22 08:49:50;;;;;;;8.45;1.67;;;;;;;13.72;39.46;100565.78;5105151;28;20021;-65
2021/03/22 08:52:27;;;;;;;7.55;1.80;;;;;;;13.79;39.98;100543.88;5105502;28;20020;-64
2021/03/22 08:55:15;;;;;;;6.95;1.70;;;;;;;14.02;39.36;100560.84;5105403;28;20024;-65
2021/03/22 08:57:53;;;;;;;6.18;1.80;;;;;;;13.84;39.11;100554.22;5105029;28;20095;-64
2021/03/22 09:00:25;;;;;;;10.73;2.65;;;;;;;13.66;39.45;100551.06;5104782;28;20606;-64
2021/03/22 09:02:53;;;;;;;6.20;1.92;;;;;;;13.92;39.77;100552.31;5105039;28;20423;-65
2021/03/22 09:05:22;;;;;;;5.60;2.05;;;;;;;14.33;39.04;100541.91;5105125;28;20022;-65
2021/03/22 09:07:47;;;;;;;5.22;1.95;;;;;;;14.78;38.49;100552.22;5104475;28;20404;-65
2021/03/22 09:10:26;;;;;;;5.78;2.50;;;;;;;15.27;37.34;100550.16;5104924;28;20493;-65
2021/03/22 09:13:03;;;;;;;8.02;1.75;;;;;;;15.84;36.63;100558.28;5104706;28;20027;-65
2021/03/22 09:15:28;;;;;;;6.57;1.40;;;;;;;16.31;34.57;100556.13;5104712;28;20051;-65
2021/03/22 09:18:00;;;;;;;5.18;1.60;;;;;;;16.48;34.33;100553.81;5104918;28;20028;-66
2021/03/22 09:20:45;;;;;;;9.57;2.05;;;;;;;16.73;34.23;100554.81;5104655;28;20039;-65
2021/03/22 09:23:38;;;;;;;4.88;1.55;;;;;;;17.07;33.50;100553.72;5100357;28;20036;-65
2021/03/22 09:26:06;;;;;;;7.75;1.98;;;;;;;17.26;33.25;100541.75;5103425;28;20058;-66
2021/03/22 09:28:36;;;;;;;7.60;2.00;;;;;;;17.31;32.92;100551.22;5120069;28;20020;-65
2021/03/22 09:31:23;;;;;;;5.03;1.80;;;;;;;17.57;32.62;100553.84;5104370;28;20024;-65
2021/03/22 09:33:56;;;;;;;8.70;1.92;;;;;;;17.86;32.37;100540.56;5104510;28;20020;-65
2021/03/22 09:36:27;;;;;;;9.07;2.13;;;;;;;17.98;32.07;100549.75;5104643;28;20020;-66
2021/03/22 09:38:53;;;;;;;6.13;1.50;;;;;;;18.08;31.38;100553.75;5104113;28;20108;-66
2021/03/22 09:41:18;;;;;;;11.85;2.95;;;;;;;18.22;31.20;100542.75;5103551;28;20027;-66
2021/03/22 09:44:05;;;;;;;4.80;1.52;;;;;;;18.38;30.87;100545.63;5103138;28;20031;-65
2021/03/22 09:46:36;;;;;;;6.10;1.80;;;;;;;18.41;30.55;100542.88;5104031;28;20115;-66
2021/03/22 09:49:10;;;;;;;3.78;1.33;;;;;;;18.34;30.58;100544.03;5104301;28;20080;-68
2021/03/22 09:51:45;;;;;;;6.20;1.83;;;;;;;18.23;30.66;100544.44;5104140;28;20020;-65
2021/03/22 09:54:41;;;;;;;6.32;1.27;;;;;;;18.40;30.70;100545.56;5104188;28;20016;-66
2021/03/22 09:57:16;;;;;;;9.13;1.45;;;;;;;18.65;30.46;100544.59;5099478;28;20166;-66
2021/03/22 10:00:00;;;;;;;5.50;1.38;;;;;;;18.79;29.84;100549.28;5104213;28;20055;-64
2021/03/22 10:02:28;;;;;;;5.50;1.33;;;;;;;19.36;29.47;100547.88;5103973;28;20027;-64
2021/03/22 10:05:17;;;;;;;6.13;1.85;;;;;;;19.60;28.69;100535.38;5104320;28;20031;-65
2021/03/22 10:07:49;;;;;;;7.57;1.65;;;;;;;19.50;28.32;100534.09;5104065;28;20024;-66
2021/03/22 10:10:29;;;;;;;8.10;1.60;;;;;;;19.28;28.91;100533.25;5104180;28;20027;-65
2021/03/22 10:13:05;;;;;;;9.85;1.75;;;;;;;19.47;29.24;100526.34;5103849;28;20030;-66
2021/03/22 10:15:37;;;;;;;9.00;2.08;;;;;;;19.73;28.31;100530.44;5103742;28;20405;-65
2021/03/22 10:18:15;;;;;;;8.07;1.73;;;;;;;19.86;28.28;100525.47;5103752;28;20032;-66
2021/03/22 10:20:45;;;;;;;4.03;1.50;;;;;;;20.01;28.81;100531.81;5102945;28;20373;-65
2021/03/22 10:23:20;;;;;;;4.35;1.30;;;;;;;20.73;28.30;100535.53;5119365;28;20039;-64
2021/03/22 10:25:48;;;;;;;5.00;1.65;;;;;;;20.89;26.87;100533.84;5103459;28;20032;-66
2021/03/22 10:28:25;;;;;;;4.85;1.58;;;;;;;21.38;26.16;100539.34;5103665;28;20020;-65
2021/03/22 10:30:53;;;;;;;5.78;1.55;;;;;;;21.38;25.44;100534.06;5118892;28;20026;-67
2021/03/22 10:33:18;;;;;;;5.85;1.73;;;;;;;21.27;26.15;100534.63;5103450;28;20028;-65
2021/03/22 10:35:48;;;;;;;5.13;1.25;;;;;;;21.09;26.32;100539.91;5103680;28;20101;-65
2021/03/22 10:38:20;;;;;;;7.03;1.55;;;;;;;21.26;25.46;100539.06;5103537;28;20042;-65
2021/03/22 10:40:46;;;;;;;7.50;2.03;;;;;;;21.15;25.07;100547.53;5103650;28;20419;-65
2021/03/22 10:43:29;;;;;;;5.78;1.40;;;;;;;20.81;24.89;100539.47;5103757;28;20039;-65
2021/03/22 10:45:55;;;;;;;3.50;1.10;;;;;;;20.47;25.26;100537.63;5103259;28;20067;-65
2021/03/22 10:48:34;;;;;;;2.40;0.95;;;;;;;19.90;25.38;100544.63;5119067;28;20085;-65
2021/03/22 10:51:00;;;;;;;7.45;1.42;;;;;;;19.50;26.04;100547.25;5103392;28;20031;-65
2021/03/22 10:53:26;;;;;;;7.00;1.00;;;;;;;19.22;26.17;100544.03;5103294;28;20032;-65
2021/03/22 10:55:52;;;;;;;3.50;1.00;;;;;;;18.80;26.62;100549.22;5103370;28;20079;-65
2021/03/22 10:58:33;;;;;;;5.22;1.38;;;;;;;18.42;27.71;100536.69;5103229;28;20049;-65
2021/03/22 11:01:01;;;;;;;6.30;1.45;;;;;;;18.31;27.64;100541.50;5101883;28;20043;-65
2021/03/22 11:03:28;;;;;;;4.50;1.13;;;;;;;18.15;28.43;100546.50;5103270;28;20039;-65
2021/03/22 11:05:55;;;;;;;4.72;1.38;;;;;;;18.19;28.47;100534.97;5103564;28;20028;-66
2021/03/22 11:08:33;;;;;;;4.75;1.38;;;;;;;18.46;28.57;100540.06;5103248;28;20020;-66
2021/03/22 11:11:19;;;;;;;3.17;1.10;;;;;;;18.17;28.56;100550.81;5103408;28;20051;-65
2021/03/22 11:13:49;;;;;;;4.57;1.30;;;;;;;18.41;28.75;100542.03;5103197;28;20028;-65
2021/03/22 11:16:21;;;;;;;6.13;1.83;;;;;;;18.79;28.43;100546.66;5103027;28;20031;-65
2021/03/22 11:18:47;;;;;;;6.63;1.40;;;;;;;19.18;28.31;100543.34;5103456;28;20016;-66
2021/03/22 11:21:21;;;;;;;7.38;1.80;;;;;;;19.30;27.84;100541.94;5103248;28;20107;-66
2021/03/22 11:23:50;;;;;;;12.18;1.65;;;;;;;19.48;27.30;100535.94;5102965;28;20031;-65
2021/03/22 11:26:20;;;;;;;4.97;1.50;;;;;;;19.45;27.85;100539.56;5103096;28;20079;-65
2021/03/22 11:28:46;;;;;;;5.25;1.60;;;;;;;19.40;27.02;100538.91;5103024;28;20376;-65
2021/03/22 11:31:18;;;;;;;5.72;1.52;;;;;;;19.24;27.44;100536.94;5104557;28;20428;-65
2021/03/22 11:34:01;;;;;;;;;;;;;;;19.18;27.81;100542.47;5107326;28;20442;-65
2021/03/22 11:36:40;;;;;;;9.73;2.20;;;;;;;18.84;27.74;100534.19;5106819;28;19930;-64
2021/03/22 11:39:18;;;;;;;3.42;1.23;;;;;;;18.73;27.96;100537.25;5106741;28;20016;-65
2021/03/22 11:41:51;;;;;;;4.80;1.02;;;;;;;18.60;28.27;100538.66;5106590;28;20119;-64
2021/03/22 11:44:22;;;;;;;7.70;1.20;;;;;;;18.61;27.59;100532.50;5106594;28;20028;-64
2021/03/22 11:46:51;;;;;;;6.15;1.52;;;;;;;17.69;27.68;100542.03;5106042;28;20056;-64
2021/03/22 11:49:36;;;;;;;2.90;1.10;;;;;;;15.91;29.61;100534.53;5106091;28;20084;-64
2021/03/22 11:52:03;;;;;;;1.75;0.98;;;;;;;14.23;32.40;100528.19;5106697;28;20028;-64
2021/03/22 11:54:31;;;;;;;3.05;0.90;;;;;;;12.92;34.86;100541.03;5106281;28;20522;-64
2021/03/22 11:57:01;;;;;;;2.65;1.10;;;;;;;11.82;37.44;100539.00;5106435;28;20032;-64